Lahore Weather



Lahore's Current Weather

Temprature 23.16o smoke

smoke

Rain: 0 %

Min Temprature22o
Max Temprature25o
Humidity57
Wind Speed9.3 m/h
Sun Rise06:07:13
Sun Set17:28:21
Current Time: 18-Oct-2019 16:33:26
Lat/Lon: 31.52, 74.33




Lahore's Geo Location



Lahore's Weather Forecast

Time Overall Temp Min Temp Max Temp Humidity Wind Speed Rain
18-Oct-2019 (Fri)
17:00:00 light rain 21.310 21.310 30.790 25 2.54 m/h 31 %
20:00:00 light rain 16.720 16.720 23.830 50 7.4 m/h 263 %
23:00:00 light rain 18.630 18.630 23.368 40 1.09 m/h 13 %
19-Oct-2019 (Sat)
02:00:00 clear sky 19.070 19.070 21.438 53 3.84 m/h 0 %
05:00:00 clear sky 20.843 20.843 20.843 56 2.44 m/h 0 %
08:00:00 clear sky 24.151 24.151 24.151 47 2.17 m/h 0 %
11:00:00 clear sky 32.190 32.190 32.190 25 2.07 m/h 0 %
14:00:00 clear sky 34.466 34.466 34.466 16 2.76 m/h 0 %
17:00:00 clear sky 31.422 31.422 31.422 18 2.92 m/h 0 %
20:00:00 clear sky 26.898 26.898 26.898 24 2.89 m/h 0 %
23:00:00 clear sky 24.177 24.177 24.177 28 2.43 m/h 0 %
20-Oct-2019 (Sun)
02:00:00 clear sky 22.247 22.247 22.247 34 1.41 m/h 0 %
05:00:00 clear sky 21.444 21.444 21.444 36 2.01 m/h 0 %
08:00:00 clear sky 25.472 25.472 25.472 28 1.71 m/h 0 %
11:00:00 few clouds 32.900 32.900 32.900 18 1.52 m/h 0 %
14:00:00 overcast clouds 34.232 34.232 34.232 14 3.96 m/h 0 %
17:00:00 overcast clouds 30.758 30.758 30.758 17 1.66 m/h 0 %
20:00:00 clear sky 25.892 25.892 25.892 23 1.96 m/h 0 %
23:00:00 clear sky 24.047 24.047 24.047 26 2.59 m/h 0 %
21-Oct-2019 (Mon)
02:00:00 clear sky 22.120 22.120 22.120 29 1.1 m/h 0 %
05:00:00 clear sky 20.981 20.981 20.981 31 0.8 m/h 0 %
08:00:00 clear sky 25.819 25.819 25.819 24 1.4 m/h 0 %
11:00:00 clear sky 33.607 33.607 33.607 15 0.45 m/h 0 %
14:00:00 clear sky 34.785 34.785 34.785 13 3.44 m/h 0 %
17:00:00 clear sky 31.144 31.144 31.144 16 1.67 m/h 0 %
20:00:00 clear sky 26.334 26.334 26.334 20 2.72 m/h 0 %
23:00:00 clear sky 24.430 24.430 24.430 23 1.96 m/h 0 %
22-Oct-2019 (Tue)
02:00:00 clear sky 21.846 21.846 21.846 28 1.45 m/h 0 %
05:00:00 clear sky 21.119 21.119 21.119 29 0.69 m/h 0 %
08:00:00 clear sky 25.272 25.272 25.272 23 0.69 m/h 0 %
11:00:00 clear sky 33.629 33.629 33.629 14 1.34 m/h 0 %
14:00:00 clear sky 35.439 35.439 35.439 11 1.63 m/h 0 %
17:00:00 clear sky 31.592 31.592 31.592 13 2.04 m/h 0 %
20:00:00 clear sky 26.850 26.850 26.850 17 1.76 m/h 0 %
23:00:00 few clouds 24.619 24.619 24.619 21 2.14 m/h 0 %
23-Oct-2019 (Wed)
02:00:00 scattered clouds 22.116 22.116 22.116 26 1.38 m/h 0 %
05:00:00 scattered clouds 21.687 21.687 21.687 30 3.01 m/h 0 %
08:00:00 few clouds 25.209 25.209 25.209 27 4.1 m/h 0 %
11:00:00 clear sky 32.585 32.585 32.585 14 3.75 m/h 0 %
14:00:00 clear sky 35.529 35.529 35.529 10 2.85 m/h 0 %


Lahore's Tourist Spots

Historical Places in Lahore

Famous Cities (61)